sensor_id;sensor_type;location;lat;lon;timestamp;temperature;humidity
11965;DHT22;6042;41.326;19.826;2023-04-03T00:01:25;11.90;99.90
11965;DHT22;6042;41.326;19.826;2023-04-03T00:03:54;11.90;99.90
11965;DHT22;6042;41.326;19.826;2023-04-03T00:06:24;11.90;99.90
11965;DHT22;6042;41.326;19.826;2023-04-03T00:08:53;12.00;99.90
11965;DHT22;6042;41.326;19.826;2023-04-03T00:11:21;12.00;99.90
11965;DHT22;6042;41.326;19.826;2023-04-03T00:13:50;11.90;99.90
11965;DHT22;6042;41.326;19.826;2023-04-03T00:16:19;11.80;99.90
11965;DHT22;6042;41.326;19.826;2023-04-03T00:18:47;12.00;99.90
11965;DHT22;6042;41.326;19.826;2023-04-03T00:21:16;12.00;99.90
11965;DHT22;6042;41.326;19.826;2023-04-03T00:23:46;12.10;99.90
11965;DHT22;6042;41.326;19.826;2023-04-03T00:26:14;12.10;99.90
11965;DHT22;6042;41.326;19.826;2023-04-03T00:28:43;12.10;99.90
11965;DHT22;6042;41.326;19.826;2023-04-03T00:31:14;11.90;99.90
11965;DHT22;6042;41.326;19.826;2023-04-03T00:33:43;11.90;99.90
11965;DHT22;6042;41.326;19.826;2023-04-03T00:36:12;11.90;99.90
11965;DHT22;6042;41.326;19.826;2023-04-03T00:38:41;11.90;99.90
11965;DHT22;6042;41.326;19.826;2023-04-03T00:41:11;11.90;99.90
11965;DHT22;6042;41.326;19.826;2023-04-03T00:43:40;12.00;99.90
11965;DHT22;6042;41.326;19.826;2023-04-03T00:46:08;12.00;99.90
11965;DHT22;6042;41.326;19.826;2023-04-03T00:48:40;12.00;99.90
11965;DHT22;6042;41.326;19.826;2023-04-03T00:51:13;12.00;99.90
11965;DHT22;6042;41.326;19.826;2023-04-03T00:53:46;12.00;99.90
11965;DHT22;6042;41.326;19.826;2023-04-03T00:56:18;12.10;99.90
11965;DHT22;6042;41.326;19.826;2023-04-03T00:58:51;12.00;99.90
11965;DHT22;6042;41.326;19.826;2023-04-03T01:01:26;12.00;99.90
11965;DHT22;6042;41.326;19.826;2023-04-03T01:03:55;12.00;99.90
11965;DHT22;6042;41.326;19.826;2023-04-03T01:06:28;11.90;99.90
11965;DHT22;6042;41.326;19.826;2023-04-03T01:09:05;11.80;99.90
11965;DHT22;6042;41.326;19.826;2023-04-03T01:11:35;11.80;99.90
11965;DHT22;6042;41.326;19.826;2023-04-03T01:14:04;11.90;99.90
11965;DHT22;6042;41.326;19.826;2023-04-03T01:16:33;11.90;99.90
11965;DHT22;6042;41.326;19.826;2023-04-03T01:19:03;12.00;99.90
11965;DHT22;6042;41.326;19.826;2023-04-03T01:24:40;12.10;99.90
11965;DHT22;6042;41.326;19.826;2023-04-03T01:27:12;12.10;99.90
11965;DHT22;6042;41.326;19.826;2023-04-03T01:30:06;12.20;99.90
11965;DHT22;6042;41.326;19.826;2023-04-03T01:32:37;12.10;99.90
11965;DHT22;6042;41.326;19.826;2023-04-03T01:35:07;12.20;99.90
11965;DHT22;6042;41.326;19.826;2023-04-03T01:37:37;12.10;99.90
11965;DHT22;6042;41.326;19.826;2023-04-03T01:40:07;12.20;99.90
11965;DHT22;6042;41.326;19.826;2023-04-03T01:42:36;12.20;99.90
11965;DHT22;6042;41.326;19.826;2023-04-03T01:45:05;12.20;99.90
11965;DHT22;6042;41.326;19.826;2023-04-03T01:47:34;12.20;99.90
11965;DHT22;6042;41.326;19.826;2023-04-03T01:50:05;12.10;99.90
11965;DHT22;6042;41.326;19.826;2023-04-03T01:52:34;12.20;99.90
11965;DHT22;6042;41.326;19.826;2023-04-03T01:55:03;12.10;99.90
11965;DHT22;6042;41.326;19.826;2023-04-03T01:57:32;12.10;99.90
11965;DHT22;6042;41.326;19.826;2023-04-03T02:00:00;12.10;99.90
11965;DHT22;6042;41.326;19.826;2023-04-03T02:02:39;12.00;99.90
11965;DHT22;6042;41.326;19.826;2023-04-03T02:05:09;11.80;99.90
11965;DHT22;6042;41.326;19.826;2023-04-03T02:07:39;11.90;99.90
11965;DHT22;6042;41.326;19.826;2023-04-03T02:10:08;11.90;99.90
11965;DHT22;6042;41.326;19.826;2023-04-03T02:12:37;11.80;99.90
11965;DHT22;6042;41.326;19.826;2023-04-03T02:15:06;11.90;99.90
11965;DHT22;6042;41.326;19.826;2023-04-03T02:17:35;11.80;99.90
11965;DHT22;6042;41.326;19.826;2023-04-03T02:20:05;12.00;99.90
11965;DHT22;6042;41.326;19.826;2023-04-03T02:22:35;12.00;99.90
11965;DHT22;6042;41.326;19.826;2023-04-03T02:25:04;11.80;99.90
11965;DHT22;6042;41.326;19.826;2023-04-03T02:27:33;11.90;99.90
11965;DHT22;6042;41.326;19.826;2023-04-03T02:30:02;11.80;99.90
11965;DHT22;6042;41.326;19.826;2023-04-03T02:32:31;11.90;99.90
11965;DHT22;6042;41.326;19.826;2023-04-03T02:35:00;11.80;99.90
11965;DHT22;6042;41.326;19.826;2023-04-03T02:37:29;11.70;99.90
11965;DHT22;6042;41.326;19.826;2023-04-03T02:40:00;11.80;99.90
11965;DHT22;6042;41.326;19.826;2023-04-03T02:42:28;11.80;99.90
11965;DHT22;6042;41.326;19.826;2023-04-03T02:44:57;11.90;99.90
11965;DHT22;6042;41.326;19.826;2023-04-03T02:47:27;12.00;99.90
11965;DHT22;6042;41.326;19.826;2023-04-03T02:49:56;12.00;99.90
11965;DHT22;6042;41.326;19.826;2023-04-03T02:52:24;11.90;99.90
11965;DHT22;6042;41.326;19.826;2023-04-03T02:54:58;12.00;99.90
11965;DHT22;6042;41.326;19.826;2023-04-03T02:57:27;11.90;99.90
11965;DHT22;6042;41.326;19.826;2023-04-03T02:59:56;11.90;99.90
11965;DHT22;6042;41.326;19.826;2023-04-03T03:02:24;11.80;99.90
11965;DHT22;6042;41.326;19.826;2023-04-03T03:04:53;11.80;99.90
11965;DHT22;6042;41.326;19.826;2023-04-03T03:07:23;11.80;99.90
11965;DHT22;6042;41.326;19.826;2023-04-03T03:09:53;11.70;99.90
11965;DHT22;6042;41.326;19.826;2023-04-03T03:12:23;11.80;99.90
11965;DHT22;6042;41.326;19.826;2023-04-03T03:14:51;11.80;99.90
11965;DHT22;6042;41.326;19.826;2023-04-03T03:17:20;11.90;99.90
11965;DHT22;6042;41.326;19.826;2023-04-03T03:19:49;11.90;99.90
11965;DHT22;6042;41.326;19.826;2023-04-03T03:22:18;11.70;99.90
11965;DHT22;6042;41.326;19.826;2023-04-03T03:24:47;11.60;99.90
11965;DHT22;6042;41.326;19.826;2023-04-03T03:27:15;11.60;99.90
11965;DHT22;6042;41.326;19.826;2023-04-03T03:29:45;11.70;99.90
11965;DHT22;6042;41.326;19.826;2023-04-03T03:32:14;11.70;99.90
11965;DHT22;6042;41.326;19.826;2023-04-03T03:34:42;11.80;99.90
11965;DHT22;6042;41.326;19.826;2023-04-03T03:37:11;11.80;99.90
11965;DHT22;6042;41.326;19.826;2023-04-03T03:39:40;11.90;99.90
11965;DHT22;6042;41.326;19.826;2023-04-03T03:42:08;11.70;99.90
11965;DHT22;6042;41.326;19.826;2023-04-03T03:44:37;11.80;99.90
11965;DHT22;6042;41.326;19.826;2023-04-03T03:47:07;11.80;99.90
11965;DHT22;6042;41.326;19.826;2023-04-03T03:49:38;11.70;99.90
11965;DHT22;6042;41.326;19.826;2023-04-03T03:52:08;11.70;99.90
11965;DHT22;6042;41.326;19.826;2023-04-03T03:54:37;11.70;99.90
11965;DHT22;6042;41.326;19.826;2023-04-03T03:57:06;11.50;99.90
11965;DHT22;6042;41.326;19.826;2023-04-03T03:59:35;11.50;99.90
11965;DHT22;6042;41.326;19.826;2023-04-03T04:02:04;11.40;99.90
11965;DHT22;6042;41.326;19.826;2023-04-03T04:04:35;11.40;99.90
11965;DHT22;6042;41.326;19.826;2023-04-03T04:07:04;11.40;99.90
11965;DHT22;6042;41.326;19.826;2023-04-03T04:09:34;11.40;99.90
11965;DHT22;6042;41.326;19.826;2023-04-03T04:12:03;11.50;99.90
11965;DHT22;6042;41.326;19.826;2023-04-03T04:14:32;11.60;99.90
11965;DHT22;6042;41.326;19.826;2023-04-03T04:17:01;11.70;99.90
11965;DHT22;6042;41.326;19.826;2023-04-03T04:19:30;11.80;99.90
11965;DHT22;6042;41.326;19.826;2023-04-03T04:22:01;11.90;99.90
11965;DHT22;6042;41.326;19.826;2023-04-03T04:24:32;11.90;99.90
11965;DHT22;6042;41.326;19.826;2023-04-03T04:27:02;12.00;99.90
11965;DHT22;6042;41.326;19.826;2023-04-03T04:29:32;12.20;99.90
11965;DHT22;6042;41.326;19.826;2023-04-03T04:32:04;12.20;99.90
11965;DHT22;6042;41.326;19.826;2023-04-03T04:34:34;12.20;99.90
11965;DHT22;6042;41.326;19.826;2023-04-03T04:37:04;12.20;99.90
11965;DHT22;6042;41.326;19.826;2023-04-03T04:39:33;12.30;99.90
11965;DHT22;6042;41.326;19.826;2023-04-03T04:42:02;12.30;99.90
11965;DHT22;6042;41.326;19.826;2023-04-03T04:44:32;12.30;99.90
11965;DHT22;6042;41.326;19.826;2023-04-03T04:47:02;12.40;99.90
11965;DHT22;6042;41.326;19.826;2023-04-03T04:49:30;12.50;99.90
11965;DHT22;6042;41.326;19.826;2023-04-03T04:52:00;12.60;99.90
11965;DHT22;6042;41.326;19.826;2023-04-03T04:54:33;12.70;99.90
11965;DHT22;6042;41.326;19.826;2023-04-03T04:57:02;12.80;99.90
11965;DHT22;6042;41.326;19.826;2023-04-03T04:59:32;13.00;99.90
11965;DHT22;6042;41.326;19.826;2023-04-03T05:02:02;13.10;99.90
11965;DHT22;6042;41.326;19.826;2023-04-03T05:04:31;13.30;99.90
11965;DHT22;6042;41.326;19.826;2023-04-03T05:07:06;13.40;99.90
11965;DHT22;6042;41.326;19.826;2023-04-03T05:09:38;13.50;99.90
11965;DHT22;6042;41.326;19.826;2023-04-03T05:12:11;13.90;99.90
11965;DHT22;6042;41.326;19.826;2023-04-03T05:14:47;14.20;99.90
11965;DHT22;6042;41.326;19.826;2023-04-03T05:17:16;14.30;99.90
11965;DHT22;6042;41.326;19.826;2023-04-03T05:19:50;14.40;99.90
11965;DHT22;6042;41.326;19.826;2023-04-03T05:22:21;14.40;99.90
11965;DHT22;6042;41.326;19.826;2023-04-03T05:24:53;14.60;99.40
11965;DHT22;6042;41.326;19.826;2023-04-03T05:27:23;14.80;98.60
11965;DHT22;6042;41.326;19.826;2023-04-03T05:29:54;15.10;97.10
11965;DHT22;6042;41.326;19.826;2023-04-03T05:32:24;15.10;97.50
11965;DHT22;6042;41.326;19.826;2023-04-03T05:35:09;15.40;96.50
11965;DHT22;6042;41.326;19.826;2023-04-03T05:37:39;15.40;97.30
11965;DHT22;6042;41.326;19.826;2023-04-03T05:40:10;15.40;97.30
11965;DHT22;6042;41.326;19.826;2023-04-03T05:42:46;15.40;97.90
11965;DHT22;6042;41.326;19.826;2023-04-03T05:45:17;15.40;96.50
11965;DHT22;6042;41.326;19.826;2023-04-03T05:47:46;15.50;96.20
11965;DHT22;6042;41.326;19.826;2023-04-03T05:50:14;15.60;94.40
11965;DHT22;6042;41.326;19.826;2023-04-03T05:52:46;15.70;93.00
11965;DHT22;6042;41.326;19.826;2023-04-03T05:55:18;16.00;91.60
11965;DHT22;6042;41.326;19.826;2023-04-03T05:57:47;16.30;91.60
11965;DHT22;6042;41.326;19.826;2023-04-03T06:00:17;16.40;91.90
11965;DHT22;6042;41.326;19.826;2023-04-03T06:02:55;16.50;90.40
11965;DHT22;6042;41.326;19.826;2023-04-03T06:05:25;16.60;91.50
11965;DHT22;6042;41.326;19.826;2023-04-03T06:07:54;16.50;92.90
11965;DHT22;6042;41.326;19.826;2023-04-03T06:10:25;16.40;91.50
11965;DHT22;6042;41.326;19.826;2023-04-03T06:12:54;16.40;92.00
11965;DHT22;6042;41.326;19.826;2023-04-03T06:15:23;16.50;90.70
11965;DHT22;6042;41.326;19.826;2023-04-03T06:17:51;16.50;91.10
11965;DHT22;6042;41.326;19.826;2023-04-03T06:20:20;16.60;90.10
11965;DHT22;6042;41.326;19.826;2023-04-03T06:22:49;16.70;89.10
11965;DHT22;6042;41.326;19.826;2023-04-03T06:25:18;16.80;87.30
11965;DHT22;6042;41.326;19.826;2023-04-03T06:27:48;16.90;87.70
11965;DHT22;6042;41.326;19.826;2023-04-03T06:30:16;17.00;87.90
11965;DHT22;6042;41.326;19.826;2023-04-03T06:32:45;17.00;87.90
11965;DHT22;6042;41.326;19.826;2023-04-03T06:35:14;17.00;87.10
11965;DHT22;6042;41.326;19.826;2023-04-03T06:37:43;17.10;85.90
11965;DHT22;6042;41.326;19.826;2023-04-03T06:40:19;17.10;86.50
11965;DHT22;6042;41.326;19.826;2023-04-03T06:42:50;17.10;85.80
11965;DHT22;6042;41.326;19.826;2023-04-03T06:45:20;17.20;85.90
11965;DHT22;6042;41.326;19.826;2023-04-03T06:47:48;17.10;86.40
11965;DHT22;6042;41.326;19.826;2023-04-03T06:50:17;17.10;86.00
11965;DHT22;6042;41.326;19.826;2023-04-03T06:52:46;17.10;85.40
11965;DHT22;6042;41.326;19.826;2023-04-03T06:55:14;17.20;85.40
11965;DHT22;6042;41.326;19.826;2023-04-03T06:57:43;17.20;85.40
11965;DHT22;6042;41.326;19.826;2023-04-03T07:00:14;17.10;85.00
11965;DHT22;6042;41.326;19.826;2023-04-03T07:02:43;17.20;86.10
11965;DHT22;6042;41.326;19.826;2023-04-03T07:05:12;17.20;85.00
11965;DHT22;6042;41.326;19.826;2023-04-03T07:07:41;17.20;85.30
11965;DHT22;6042;41.326;19.826;2023-04-03T07:10:10;17.20;85.30
11965;DHT22;6042;41.326;19.826;2023-04-03T07:12:39;17.20;84.40
11965;DHT22;6042;41.326;19.826;2023-04-03T07:15:09;17.20;84.80
11965;DHT22;6042;41.326;19.826;2023-04-03T07:17:39;17.10;84.40
11965;DHT22;6042;41.326;19.826;2023-04-03T07:20:09;17.10;85.10
11965;DHT22;6042;41.326;19.826;2023-04-03T07:22:38;17.10;84.50
11965;DHT22;6042;41.326;19.826;2023-04-03T07:25:07;17.10;84.40
11965;DHT22;6042;41.326;19.826;2023-04-03T07:27:36;17.10;85.50
11965;DHT22;6042;41.326;19.826;2023-04-03T07:30:05;17.00;85.10
11965;DHT22;6042;41.326;19.826;2023-04-03T07:32:34;16.90;85.40
11965;DHT22;6042;41.326;19.826;2023-04-03T07:35:05;17.00;85.30
11965;DHT22;6042;41.326;19.826;2023-04-03T07:37:34;17.00;84.50
11965;DHT22;6042;41.326;19.826;2023-04-03T07:40:03;17.00;84.80
11965;DHT22;6042;41.326;19.826;2023-04-03T07:42:32;17.00;84.50
11965;DHT22;6042;41.326;19.826;2023-04-03T07:45:01;17.00;84.00
11965;DHT22;6042;41.326;19.826;2023-04-03T07:47:30;17.00;84.50
11965;DHT22;6042;41.326;19.826;2023-04-03T07:49:59;17.10;84.90
11965;DHT22;6042;41.326;19.826;2023-04-03T07:52:29;17.10;83.50
11965;DHT22;6042;41.326;19.826;2023-04-03T07:54:57;17.10;84.50
11965;DHT22;6042;41.326;19.826;2023-04-03T07:57:26;17.10;83.60
11965;DHT22;6042;41.326;19.826;2023-04-03T07:59:55;17.10;84.10
11965;DHT22;6042;41.326;19.826;2023-04-03T08:02:23;17.10;83.70
11965;DHT22;6042;41.326;19.826;2023-04-03T08:04:52;17.10;84.80
11965;DHT22;6042;41.326;19.826;2023-04-03T08:07:21;17.20;84.60
11965;DHT22;6042;41.326;19.826;2023-04-03T08:09:51;17.20;84.30
11965;DHT22;6042;41.326;19.826;2023-04-03T08:12:19;17.20;84.00
11965;DHT22;6042;41.326;19.826;2023-04-03T08:14:48;17.20;84.40
11965;DHT22;6042;41.326;19.826;2023-04-03T08:17:16;17.20;84.60
11965;DHT22;6042;41.326;19.826;2023-04-03T08:19:45;17.30;85.00
11965;DHT22;6042;41.326;19.826;2023-04-03T08:22:14;17.30;84.80
11965;DHT22;6042;41.326;19.826;2023-04-03T08:24:43;17.30;84.60
11965;DHT22;6042;41.326;19.826;2023-04-03T08:27:27;17.40;84.90
11965;DHT22;6042;41.326;19.826;2023-04-03T08:29:56;17.40;84.40
11965;DHT22;6042;41.326;19.826;2023-04-03T08:32:24;17.40;84.20
11965;DHT22;6042;41.326;19.826;2023-04-03T08:34:54;17.40;84.30
11965;DHT22;6042;41.326;19.826;2023-04-03T08:37:22;17.30;84.10
11965;DHT22;6042;41.326;19.826;2023-04-03T08:39:51;17.30;84.50
11965;DHT22;6042;41.326;19.826;2023-04-03T08:42:34;17.30;83.60
11965;DHT22;6042;41.326;19.826;2023-04-03T08:45:09;17.20;84.20
11965;DHT22;6042;41.326;19.826;2023-04-03T08:47:44;17.20;84.60
11965;DHT22;6042;41.326;19.826;2023-04-03T08:50:17;17.20;84.30
11965;DHT22;6042;41.326;19.826;2023-04-03T08:52:49;17.20;84.70
11965;DHT22;6042;41.326;19.826;2023-04-03T08:55:23;17.30;84.40
11965;DHT22;6042;41.326;19.826;2023-04-03T08:57:59;17.30;84.60
11965;DHT22;6042;41.326;19.826;2023-04-03T09:00:34;17.50;83.10
11965;DHT22;6042;41.326;19.826;2023-04-03T09:03:12;17.70;83.30
11965;DHT22;6042;41.326;19.826;2023-04-03T09:05:45;18.20;82.70
11965;DHT22;6042;41.326;19.826;2023-04-03T09:08:22;18.50;82.40
11965;DHT22;6042;41.326;19.826;2023-04-03T09:11:05;18.60;81.10
11965;DHT22;6042;41.326;19.826;2023-04-03T09:13:45;18.80;81.60
11965;DHT22;6042;41.326;19.826;2023-04-03T09:16:25;18.70;79.90
11965;DHT22;6042;41.326;19.826;2023-04-03T09:19:04;18.50;79.90
11965;DHT22;6042;41.326;19.826;2023-04-03T09:21:38;18.50;80.30
11965;DHT22;6042;41.326;19.826;2023-04-03T09:24:11;18.50;80.60
11965;DHT22;6042;41.326;19.826;2023-04-03T09:26:43;18.30;80.50
11965;DHT22;6042;41.326;19.826;2023-04-03T09:29:18;18.20;81.20
11965;DHT22;6042;41.326;19.826;2023-04-03T09:31:49;18.00;80.50
11965;DHT22;6042;41.326;19.826;2023-04-03T09:34:22;17.80;80.50
11965;DHT22;6042;41.326;19.826;2023-04-03T09:36:52;17.90;80.70
11965;DHT22;6042;41.326;19.826;2023-04-03T09:39:23;17.90;81.30
11965;DHT22;6042;41.326;19.826;2023-04-03T09:41:59;17.90;81.10
11965;DHT22;6042;41.326;19.826;2023-04-03T09:44:35;17.90;80.40
11965;DHT22;6042;41.326;19.826;2023-04-03T09:47:18;17.90;80.30
11965;DHT22;6042;41.326;19.826;2023-04-03T09:49:47;17.90;81.20
11965;DHT22;6042;41.326;19.826;2023-04-03T09:52:22;17.80;81.20
11965;DHT22;6042;41.326;19.826;2023-04-03T09:54:52;17.70;82.10
11965;DHT22;6042;41.326;19.826;2023-04-03T09:57:21;17.70;82.40
11965;DHT22;6042;41.326;19.826;2023-04-03T09:59:59;17.70;82.40
11965;DHT22;6042;41.326;19.826;2023-04-03T10:02:36;17.70;82.10
11965;DHT22;6042;41.326;19.826;2023-04-03T10:05:33;17.50;81.60
11965;DHT22;6042;41.326;19.826;2023-04-03T10:08:10;17.40;82.40
11965;DHT22;6042;41.326;19.826;2023-04-03T10:10:40;17.40;81.70
11965;DHT22;6042;41.326;19.826;2023-04-03T10:13:12;17.50;82.00
11965;DHT22;6042;41.326;19.826;2023-04-03T10:15:52;17.60;82.50
11965;DHT22;6042;41.326;19.826;2023-04-03T10:18:32;17.70;84.80
11965;DHT22;6042;41.326;19.826;2023-04-03T10:21:10;17.70;81.20
11965;DHT22;6042;41.326;19.826;2023-04-03T10:23:58;17.80;80.80
11965;DHT22;6042;41.326;19.826;2023-04-03T10:26:38;18.00;80.40
11965;DHT22;6042;41.326;19.826;2023-04-03T10:29:18;18.20;80.80
11965;DHT22;6042;41.326;19.826;2023-04-03T10:31:56;18.30;80.30
11965;DHT22;6042;41.326;19.826;2023-04-03T10:34:29;18.30;79.70
11965;DHT22;6042;41.326;19.826;2023-04-03T10:37:06;18.20;81.30
11965;DHT22;6042;41.326;19.826;2023-04-03T10:39:46;18.00;81.80
11965;DHT22;6042;41.326;19.826;2023-04-03T10:42:26;18.00;81.20
11965;DHT22;6042;41.326;19.826;2023-04-03T10:45:18;17.90;81.50
11965;DHT22;6042;41.326;19.826;2023-04-03T10:47:56;17.80;83.10
11965;DHT22;6042;41.326;19.826;2023-04-03T10:50:36;17.70;83.90
11965;DHT22;6042;41.326;19.826;2023-04-03T10:53:14;17.70;82.40
11965;DHT22;6042;41.326;19.826;2023-04-03T10:55:51;17.70;80.70
11965;DHT22;6042;41.326;19.826;2023-04-03T10:58:27;17.70;81.20
11965;DHT22;6042;41.326;19.826;2023-04-03T11:01:00;17.60;82.20
11965;DHT22;6042;41.326;19.826;2023-04-03T11:03:35;17.60;81.30
11965;DHT22;6042;41.326;19.826;2023-04-03T11:06:08;17.70;81.20
11965;DHT22;6042;41.326;19.826;2023-04-03T11:08:43;17.60;81.40
11965;DHT22;6042;41.326;19.826;2023-04-03T11:11:16;17.60;81.30
11965;DHT22;6042;41.326;19.826;2023-04-03T11:13:49;17.60;80.80
11965;DHT22;6042;41.326;19.826;2023-04-03T11:16:23;17.70;80.20
11965;DHT22;6042;41.326;19.826;2023-04-03T11:18:56;17.80;79.90
11965;DHT22;6042;41.326;19.826;2023-04-03T11:21:29;17.80;80.10
11965;DHT22;6042;41.326;19.826;2023-04-03T11:24:05;17.80;81.00
11965;DHT22;6042;41.326;19.826;2023-04-03T11:26:38;17.70;80.90
11965;DHT22;6042;41.326;19.826;2023-04-03T11:29:13;17.70;80.70
11965;DHT22;6042;41.326;19.826;2023-04-03T11:32:10;17.80;80.30
11965;DHT22;6042;41.326;19.826;2023-04-03T11:34:43;17.90;81.30
11965;DHT22;6042;41.326;19.826;2023-04-03T11:37:17;17.90;81.20
11965;DHT22;6042;41.326;19.826;2023-04-03T11:39:56;17.90;80.20
11965;DHT22;6042;41.326;19.826;2023-04-03T11:42:31;17.80;80.70
11965;DHT22;6042;41.326;19.826;2023-04-03T11:45:29;17.70;81.10
11965;DHT22;6042;41.326;19.826;2023-04-03T11:48:01;17.70;80.60
11965;DHT22;6042;41.326;19.826;2023-04-03T11:50:51;17.70;80.30
11965;DHT22;6042;41.326;19.826;2023-04-03T11:53:29;17.80;80.30
11965;DHT22;6042;41.326;19.826;2023-04-03T11:56:29;17.90;82.40
11965;DHT22;6042;41.326;19.826;2023-04-03T11:59:24;17.90;80.00
11965;DHT22;6042;41.326;19.826;2023-04-03T12:01:55;17.80;80.10
11965;DHT22;6042;41.326;19.826;2023-04-03T12:04:26;17.90;80.40
11965;DHT22;6042;41.326;19.826;2023-04-03T12:07:13;18.00;80.90
11965;DHT22;6042;41.326;19.826;2023-04-03T12:12:59;17.90;81.00
11965;DHT22;6042;41.326;19.826;2023-04-03T12:15:50;17.90;80.10
11965;DHT22;6042;41.326;19.826;2023-04-03T12:18:58;17.70;80.10
11965;DHT22;6042;41.326;19.826;2023-04-03T12:24:53;17.50;81.10
11965;DHT22;6042;41.326;19.826;2023-04-03T12:27:28;17.50;81.40
11965;DHT22;6042;41.326;19.826;2023-04-03T12:30:04;17.50;81.80
11965;DHT22;6042;41.326;19.826;2023-04-03T12:32:46;17.50;82.30
11965;DHT22;6042;41.326;19.826;2023-04-03T12:35:31;17.50;81.70
11965;DHT22;6042;41.326;19.826;2023-04-03T12:41:19;17.40;81.60
11965;DHT22;6042;41.326;19.826;2023-04-03T12:44:06;17.50;81.90
11965;DHT22;6042;41.326;19.826;2023-04-03T12:46:41;17.60;81.40
11965;DHT22;6042;41.326;19.826;2023-04-03T12:49:24;17.50;82.50
11965;DHT22;6042;41.326;19.826;2023-04-03T12:51:55;17.50;85.00
11965;DHT22;6042;41.326;19.826;2023-04-03T12:54:29;17.40;85.40
11965;DHT22;6042;41.326;19.826;2023-04-03T12:57:16;17.40;85.20
11965;DHT22;6042;41.326;19.826;2023-04-03T12:59:45;17.50;85.20
11965;DHT22;6042;41.326;19.826;2023-04-03T13:02:22;17.40;86.50
11965;DHT22;6042;41.326;19.826;2023-04-03T13:04:52;17.40;86.90
11965;DHT22;6042;41.326;19.826;2023-04-03T13:07:25;17.30;87.20
11965;DHT22;6042;41.326;19.826;2023-04-03T13:09:58;17.30;86.50
11965;DHT22;6042;41.326;19.826;2023-04-03T13:12:29;17.10;87.70
11965;DHT22;6042;41.326;19.826;2023-04-03T13:15:00;17.00;86.30
11965;DHT22;6042;41.326;19.826;2023-04-03T13:17:31;17.00;86.80
11965;DHT22;6042;41.326;19.826;2023-04-03T13:20:13;17.00;87.60
11965;DHT22;6042;41.326;19.826;2023-04-03T13:22:49;17.00;87.40
11965;DHT22;6042;41.326;19.826;2023-04-03T13:25:21;16.90;87.00
11965;DHT22;6042;41.326;19.826;2023-04-03T13:27:52;16.80;88.80
11965;DHT22;6042;41.326;19.826;2023-04-03T13:30:39;16.70;88.40
11965;DHT22;6042;41.326;19.826;2023-04-03T13:33:20;16.60;90.00
11965;DHT22;6042;41.326;19.826;2023-04-03T13:35:55;16.60;89.80
11965;DHT22;6042;41.326;19.826;2023-04-03T13:38:26;16.60;89.80
11965;DHT22;6042;41.326;19.826;2023-04-03T13:41:00;16.60;89.80
11965;DHT22;6042;41.326;19.826;2023-04-03T13:43:32;16.60;89.30
11965;DHT22;6042;41.326;19.826;2023-04-03T13:46:04;16.60;89.00
11965;DHT22;6042;41.326;19.826;2023-04-03T13:48:39;16.70;88.30
11965;DHT22;6042;41.326;19.826;2023-04-03T13:51:18;16.70;88.50
11965;DHT22;6042;41.326;19.826;2023-04-03T13:53:50;16.50;89.70
11965;DHT22;6042;41.326;19.826;2023-04-03T13:56:26;16.50;89.40
11965;DHT22;6042;41.326;19.826;2023-04-03T13:59:02;16.60;89.30
11965;DHT22;6042;41.326;19.826;2023-04-03T14:01:43;16.60;89.00
11965;DHT22;6042;41.326;19.826;2023-04-03T14:04:17;16.70;88.90
11965;DHT22;6042;41.326;19.826;2023-04-03T14:06:46;16.90;88.50
11965;DHT22;6042;41.326;19.826;2023-04-03T14:09:17;17.10;87.40
11965;DHT22;6042;41.326;19.826;2023-04-03T14:11:47;17.20;86.90
11965;DHT22;6042;41.326;19.826;2023-04-03T14:14:20;17.10;85.70
11965;DHT22;6042;41.326;19.826;2023-04-03T14:16:52;17.10;86.20
11965;DHT22;6042;41.326;19.826;2023-04-03T14:19:23;17.30;84.20
11965;DHT22;6042;41.326;19.826;2023-04-03T14:21:55;17.30;84.20
11965;DHT22;6042;41.326;19.826;2023-04-03T14:24:24;17.20;85.80
11965;DHT22;6042;41.326;19.826;2023-04-03T14:26:54;17.00;88.60
11965;DHT22;6042;41.326;19.826;2023-04-03T14:29:25;16.90;89.30
11965;DHT22;6042;41.326;19.826;2023-04-03T14:31:53;17.00;89.10
11965;DHT22;6042;41.326;19.826;2023-04-03T14:34:41;17.00;89.90
11965;DHT22;6042;41.326;19.826;2023-04-03T14:37:12;17.20;89.70
11965;DHT22;6042;41.326;19.826;2023-04-03T14:39:42;17.40;89.60
11965;DHT22;6042;41.326;19.826;2023-04-03T14:42:13;17.60;89.00
11965;DHT22;6042;41.326;19.826;2023-04-03T14:44:44;17.90;88.40
11965;DHT22;6042;41.326;19.826;2023-04-03T14:47:16;18.20;87.30
11965;DHT22;6042;41.326;19.826;2023-04-03T14:49:57;18.20;86.50
11965;DHT22;6042;41.326;19.826;2023-04-03T14:52:28;18.10;87.00
11965;DHT22;6042;41.326;19.826;2023-04-03T14:54:59;18.00;87.50
11965;DHT22;6042;41.326;19.826;2023-04-03T14:57:29;17.90;87.60
11965;DHT22;6042;41.326;19.826;2023-04-03T14:59:59;17.80;87.30
11965;DHT22;6042;41.326;19.826;2023-04-03T15:02:32;17.70;86.80
11965;DHT22;6042;41.326;19.826;2023-04-03T15:05:03;17.50;87.50
11965;DHT22;6042;41.326;19.826;2023-04-03T15:07:34;17.40;86.70
11965;DHT22;6042;41.326;19.826;2023-04-03T15:10:14;17.40;86.10
11965;DHT22;6042;41.326;19.826;2023-04-03T15:12:45;17.40;87.00
11965;DHT22;6042;41.326;19.826;2023-04-03T15:15:17;17.40;86.60
11965;DHT22;6042;41.326;19.826;2023-04-03T15:17:48;17.30;87.00
11965;DHT22;6042;41.326;19.826;2023-04-03T15:20:22;17.30;86.80
11965;DHT22;6042;41.326;19.826;2023-04-03T15:22:51;17.30;88.10
11965;DHT22;6042;41.326;19.826;2023-04-03T15:25:20;17.30;86.80
11965;DHT22;6042;41.326;19.826;2023-04-03T15:27:48;17.10;90.40
11965;DHT22;6042;41.326;19.826;2023-04-03T15:30:19;17.00;90.90
11965;DHT22;6042;41.326;19.826;2023-04-03T15:32:49;16.80;91.20
11965;DHT22;6042;41.326;19.826;2023-04-03T15:35:19;16.70;91.50
11965;DHT22;6042;41.326;19.826;2023-04-03T15:37:48;16.60;91.80
11965;DHT22;6042;41.326;19.826;2023-04-03T15:40:18;16.60;91.90
11965;DHT22;6042;41.326;19.826;2023-04-03T15:42:46;16.50;90.70
11965;DHT22;6042;41.326;19.826;2023-04-03T15:45:18;16.40;89.30
11965;DHT22;6042;41.326;19.826;2023-04-03T15:47:48;16.40;89.40
11965;DHT22;6042;41.326;19.826;2023-04-03T15:50:17;16.40;90.00
11965;DHT22;6042;41.326;19.826;2023-04-03T15:52:45;16.40;90.00
11965;DHT22;6042;41.326;19.826;2023-04-03T15:55:14;16.50;89.60
11965;DHT22;6042;41.326;19.826;2023-04-03T15:57:42;16.40;89.10
11965;DHT22;6042;41.326;19.826;2023-04-03T16:00:12;16.30;90.20
11965;DHT22;6042;41.326;19.826;2023-04-03T16:02:43;16.30;90.10
11965;DHT22;6042;41.326;19.826;2023-04-03T16:05:12;16.20;90.40
11965;DHT22;6042;41.326;19.826;2023-04-03T16:07:42;16.20;91.00
11965;DHT22;6042;41.326;19.826;2023-04-03T16:10:13;16.20;90.90
11965;DHT22;6042;41.326;19.826;2023-04-03T16:12:42;16.10;90.90
11965;DHT22;6042;41.326;19.826;2023-04-03T16:15:10;16.10;91.10